Evangeline, Louisiana
Current Conditions -  °F | °C
As of 11:35 PM on Tuesday 21 Oct 2014 (Local Time) from K3R7 Reporting Station
Clear Clear  
Wind Chill: 62°   Ceiling: Unl
Heat Index: 62°   Visibility: 10mi
Dew Point: 59°   Wind: 5mph
Humidity: 89%   Direction: 70°ENE
Pressure: 30.05"   Gusts: NA
Location:  30.26°N, 92.57°W
Report Text: K3R7 220435Z AUTO 07004KT 10SM CLR 17/15 A3005 RMK AO2 T01690151
Loading
Personal Weather Stations






























Interactive Weather Map
Tropical Storm Tracking
New forecast layout! Learn more

10-Day Weather Forecast

Advertisements
Track Severe Weather on mobile